LOWL/LNZ METAR and TAF weather

Enter ICAO airport designator
Station Type Date Time Source
LOWL METAR 2019/07/20 05:50 UTC NOAA

LOWL 200550Z VRB02KT CAVOK 20/15 Q1017 NOSIG


Station Type Date Time Source
LOWL Decoded METAR 2019/07/20 05:50 UTC NOAA

Linz / Hoersching-Flughafen, Austria (LOWL) 48-14N 014-11E 313M
Jul 20, 2019 - 01:50 AM EDT / 2019.07.20 0550 UTC
Wind: Variable at 2 MPH (2 KT):0
Visibility: greater than 7 mile(s):0
Temperature: 68 F (20 C)
Dew Point: 59 F (15 C)
Relative Humidity: 72%
Pressure (altimeter): 30.03 in. Hg (1017 hPa)
ob: LOWL 200550Z VRB02KT CAVOK 20/15 Q1017 NOSIG
cycle: 6

Station Type Date Time Source
LOWL TAF 2019/07/20 06:21 UTC NOAA

TAF LOWL 200515Z 2006/2106 08004KT CAVOK TX31/2014Z TN18/2103Z
TEMPO 2016/2020 30008KT 9999 FEW050CB
BECMG 2104/2106 28005KT 9999 BKN050

Example: see airport list